Time;durP1;ratioP1;P1;durP2;ratioP2;P2;SDS_P1;SDS_P2;PMS_P1;PMS_P2;Temp;Humidity;BMP_temperature;BMP_pressure;BME280_temperature;BME280_humidity;BME280_pressure;Samples;Min_cycle;Max_cycle;Signal;HPM_P1;HPM_P2
2020/12/12 00:00:00;;;;;;;37.50;19.52;;;;;;;4.69;100.00;98662.50;4967089;28;20047;-72
2020/12/12 00:02:30;;;;;;;35.70;18.90;;;;;;;4.80;100.00;98655.41;4967033;28;20477;-71
2020/12/12 00:04:59;;;;;;;34.80;19.38;;;;;;;4.84;100.00;98658.69;4968257;28;20092;-71
2020/12/12 00:07:25;;;;;;;41.60;19.85;;;;;;;4.85;100.00;98653.28;4965888;28;20070;-71
2020/12/12 00:09:51;;;;;;;36.03;19.30;;;;;;;4.80;100.00;98655.41;4967532;28;20042;-71
2020/12/12 00:12:16;;;;;;;36.95;19.95;;;;;;;4.78;100.00;98660.00;4968876;28;20041;-72
2020/12/12 00:14:42;;;;;;;40.30;21.38;;;;;;;4.79;100.00;98656.38;4966880;28;20545;-71
2020/12/12 00:17:07;;;;;;;37.33;19.75;;;;;;;4.77;100.00;98666.25;4967658;28;20039;-72
2020/12/12 00:19:32;;;;;;;42.13;21.58;;;;;;;4.73;100.00;98675.44;4965583;28;20400;-71
2020/12/12 00:21:58;;;;;;;37.67;19.58;;;;;;;4.79;100.00;98667.00;4965420;28;20407;-71
2020/12/12 00:24:23;;;;;;;35.65;18.58;;;;;;;4.83;100.00;98671.13;4966248;28;20038;-71
2020/12/12 00:26:49;;;;;;;32.60;17.40;;;;;;;4.84;100.00;98671.97;4967605;28;20035;-71
2020/12/12 00:29:16;;;;;;;34.42;17.33;;;;;;;4.83;100.00;98663.16;4970593;28;20036;-71
2020/12/12 00:31:42;;;;;;;30.15;17.25;;;;;;;4.76;100.00;98669.88;4969381;28;20034;-72
2020/12/12 00:34:08;;;;;;;31.42;17.75;;;;;;;4.82;100.00;98672.09;4969052;28;20035;-71
2020/12/12 00:36:42;;;;;;;33.30;17.42;;;;;;;4.85;100.00;98666.56;4970322;28;20489;-71
2020/12/12 00:39:08;;;;;;;34.63;18.55;;;;;;;4.80;100.00;98668.72;4969647;28;20039;-69
2020/12/12 00:41:38;;;;;;;38.15;19.17;;;;;;;4.77;100.00;98671.56;4970110;28;20049;-69
2020/12/12 00:44:04;;;;;;;33.30;17.33;;;;;;;4.85;100.00;98665.72;4965492;28;20041;-71
2020/12/12 00:46:29;;;;;;;34.08;18.38;;;;;;;4.76;100.00;98680.50;4963315;28;20184;-71
2020/12/12 00:48:55;;;;;;;34.28;18.30;;;;;;;4.80;100.00;98683.81;4967095;28;20121;-72
2020/12/12 00:51:21;;;;;;;32.45;17.85;;;;;;;4.78;100.00;98683.91;4967541;28;20217;-71
2020/12/12 00:53:47;;;;;;;29.65;16.70;;;;;;;4.80;100.00;98684.66;4968266;28;20041;-72
2020/12/12 00:56:14;;;;;;;31.77;17.70;;;;;;;4.84;100.00;98680.81;4965387;28;20124;-72
2020/12/12 00:58:40;;;;;;;33.47;17.80;;;;;;;4.93;100.00;98678.44;4966367;28;20031;-71
2020/12/12 01:01:05;;;;;;;37.08;18.48;;;;;;;4.91;100.00;98683.00;4970155;28;20408;-72
2020/12/12 01:03:31;;;;;;;41.80;17.58;;;;;;;4.86;100.00;98683.34;4965757;28;20059;-72
2020/12/12 01:05:56;;;;;;;33.42;17.35;;;;;;;4.93;100.00;98683.75;4970398;28;20283;-71
2020/12/12 01:08:21;;;;;;;35.45;17.73;;;;;;;4.84;100.00;98683.47;4968099;28;20046;-69
2020/12/12 01:10:47;;;;;;;31.60;16.90;;;;;;;4.92;100.00;98687.38;4966233;28;20119;-69
2020/12/12 01:13:12;;;;;;;31.35;17.85;;;;;;;4.86;100.00;98683.34;4966111;28;20860;-69
2020/12/12 01:15:37;;;;;;;33.15;17.67;;;;;;;4.86;100.00;98686.88;4970535;28;20034;-70
2020/12/12 01:18:03;;;;;;;33.42;18.20;;;;;;;4.89;100.00;98688.44;4970746;28;20046;-70
2020/12/12 01:20:28;;;;;;;28.08;16.23;;;;;;;4.90;100.00;98698.09;4970543;28;20041;-69
2020/12/12 01:22:54;;;;;;;33.40;17.90;;;;;;;4.93;100.00;98689.94;4970832;28;20038;-69
2020/12/12 01:25:19;;;;;;;27.73;16.50;;;;;;;4.93;100.00;98694.38;4968370;28;20053;-70
2020/12/12 01:27:45;;;;;;;31.13;17.55;;;;;;;4.86;100.00;98697.50;4969416;28;20060;-69
2020/12/12 01:30:11;;;;;;;30.42;17.20;;;;;;;4.93;100.00;98697.03;4971471;28;21870;-69
2020/12/12 01:32:36;;;;;;;34.75;18.27;;;;;;;4.91;100.00;98688.31;4970527;28;20027;-69
2020/12/12 01:35:02;;;;;;;30.70;17.15;;;;;;;4.93;100.00;98697.03;4970390;28;20034;-70
2020/12/12 01:37:28;;;;;;;31.52;16.48;;;;;;;4.88;100.00;98695.56;4969593;28;20038;-69
2020/12/12 01:39:53;;;;;;;30.50;16.48;;;;;;;4.94;100.00;98699.56;4968722;28;20483;-69
2020/12/12 01:42:18;;;;;;;29.85;16.52;;;;;;;4.95;100.00;98697.75;4968896;28;20066;-70
2020/12/12 01:44:44;;;;;;;27.10;16.20;;;;;;;4.96;100.00;98694.16;4972641;28;20038;-71
2020/12/12 01:47:10;;;;;;;28.48;15.45;;;;;;;4.98;100.00;98705.53;4967426;28;20553;-70
2020/12/12 01:49:35;;;;;;;32.03;16.48;;;;;;;5.01;100.00;98702.63;4968437;28;20030;-71
2020/12/12 01:52:02;;;;;;;32.15;15.52;;;;;;;4.96;100.00;98715.41;4970480;28;20129;-71
2020/12/12 01:54:28;;;;;;;28.15;15.50;;;;;;;5.02;100.00;98721.13;4970025;28;20034;-71
2020/12/12 01:56:54;;;;;;;29.10;15.52;;;;;;;4.97;100.00;98717.13;4966936;28;20109;-71
2020/12/12 01:59:20;;;;;;;27.10;14.98;;;;;;;4.96;100.00;98720.72;4968723;28;20098;-71
2020/12/12 02:01:47;;;;;;;27.70;15.95;;;;;;;5.10;100.00;98717.91;4970012;28;20505;-72
2020/12/12 02:04:18;;;;;;;24.98;14.57;;;;;;;5.08;100.00;98709.19;4970870;28;20410;-71
2020/12/12 02:06:44;;;;;;;25.98;14.73;;;;;;;5.11;100.00;98717.81;4974533;28;21224;-71
2020/12/12 02:09:12;;;;;;;27.52;14.82;;;;;;;5.12;100.00;98721.31;4967256;28;20508;-71
2020/12/12 02:11:38;;;;;;;25.55;14.45;;;;;;;5.22;100.00;98719.66;4968201;28;20129;-71
2020/12/12 02:14:03;;;;;;;24.13;13.13;;;;;;;5.17;100.00;98725.34;4968065;28;20118;-72
2020/12/12 02:16:29;;;;;;;28.73;15.10;;;;;;;5.17;100.00;98716.50;4969663;28;20035;-71
2020/12/12 02:18:54;;;;;;;23.63;13.38;;;;;;;5.16;100.00;98722.78;4968636;28;20046;-71
2020/12/12 02:21:19;;;;;;;25.58;13.77;;;;;;;5.19;100.00;98720.72;4970055;28;21613;-71
2020/12/12 02:23:45;;;;;;;24.25;13.73;;;;;;;5.27;100.00;98714.84;4969337;28;20172;-71
2020/12/12 02:26:10;;;;;;;24.88;13.68;;;;;;;5.30;100.00;98719.97;4967342;28;20504;-71
2020/12/12 02:31:05;;;;;;;29.52;14.63;;;;;;;5.28;100.00;98717.41;4967636;28;20030;-72
2020/12/12 02:33:30;;;;;;;28.85;15.43;;;;;;;5.27;100.00;98709.53;4971901;28;20412;-71
2020/12/12 02:35:57;;;;;;;28.38;15.20;;;;;;;5.28;100.00;98724.53;4975104;28;20670;-73
2020/12/12 02:38:23;;;;;;;28.48;15.25;;;;;;;5.37;100.00;98725.66;4967092;28;20042;-72
2020/12/12 02:40:48;;;;;;;30.95;16.10;;;;;;;5.22;100.00;98725.00;4969991;28;20049;-71
2020/12/12 02:43:14;;;;;;;30.38;15.00;;;;;;;5.35;100.00;98720.47;4976727;28;20303;-71
2020/12/12 02:45:44;;;;;;;25.17;15.00;;;;;;;5.37;100.00;98721.16;4968006;28;20061;-71
2020/12/12 02:48:10;;;;;;;24.98;14.52;;;;;;;5.31;100.00;98726.94;4968291;28;20047;-72
2020/12/12 02:50:35;;;;;;;27.58;14.45;;;;;;;5.28;100.00;98721.88;4968007;28;20101;-72
2020/12/12 02:53:00;;;;;;;27.77;14.15;;;;;;;5.28;100.00;98722.72;4976064;28;20039;-71
2020/12/12 02:55:26;;;;;;;23.33;14.05;;;;;;;5.28;100.00;98728.03;4971398;28;20501;-71
2020/12/12 02:57:52;;;;;;;25.52;12.85;;;;;;;5.32;100.00;98728.66;4968193;28;20046;-71
2020/12/12 03:00:20;;;;;;;25.10;13.43;;;;;;;5.36;100.00;98723.97;4968250;28;20081;-71
2020/12/12 03:02:46;;;;;;;23.63;14.00;;;;;;;5.32;100.00;98736.63;4969219;28;20043;-69
2020/12/12 03:05:11;;;;;;;23.30;12.77;;;;;;;5.43;100.00;98734.00;4965271;28;20037;-68
2020/12/12 03:07:37;;;;;;;24.08;13.75;;;;;;;5.37;100.00;98733.66;4968569;28;20093;-69
2020/12/12 03:10:06;;;;;;;26.50;12.32;;;;;;;5.42;100.00;98735.00;4966707;28;20039;-69
2020/12/12 03:12:37;;;;;;;25.08;13.93;;;;;;;5.47;100.00;98738.16;4973045;28;20150;-69
2020/12/12 03:15:08;;;;;;;23.15;12.82;;;;;;;5.42;100.00;98737.66;4969347;28;20059;-71
2020/12/12 03:17:33;;;;;;;22.55;13.23;;;;;;;5.47;100.00;98748.81;4963881;28;20030;-71
2020/12/12 03:19:59;;;;;;;23.60;13.65;;;;;;;5.43;100.00;98742.00;4967070;28;20401;-71
2020/12/12 03:22:24;;;;;;;25.15;13.70;;;;;;;5.43;100.00;98747.31;4968040;28;20070;-72
2020/12/12 03:24:50;;;;;;;24.65;13.35;;;;;;;5.46;100.00;98746.25;4968368;28;20039;-71
2020/12/12 03:27:16;;;;;;;24.35;13.82;;;;;;;5.51;100.00;98752.91;4969237;28;20082;-70
2020/12/12 03:29:41;;;;;;;24.73;13.48;;;;;;;5.48;100.00;98745.19;4980917;28;20489;-71
2020/12/12 03:32:08;;;;;;;24.52;13.88;;;;;;;5.46;100.00;98752.41;4976508;28;20113;-73
2020/12/12 03:34:35;;;;;;;22.73;13.65;;;;;;;5.43;100.00;98754.47;4968880;28;20370;-71
2020/12/12 03:37:00;;;;;;;23.88;14.07;;;;;;;5.55;100.00;98754.41;4964588;28;20041;-71
2020/12/12 03:39:26;;;;;;;21.60;12.98;;;;;;;5.58;100.00;98750.66;4969026;28;20031;-71
2020/12/12 03:41:51;;;;;;;22.80;11.90;;;;;;;5.55;100.00;98751.75;4950956;28;20485;-71
2020/12/12 03:44:17;;;;;;;24.63;13.55;;;;;;;5.56;100.00;98755.22;4969296;28;20041;-71
2020/12/12 03:46:42;;;;;;;24.75;12.05;;;;;;;5.56;100.00;98761.41;4965802;28;20042;-71
2020/12/12 03:49:08;;;;;;;22.15;12.30;;;;;;;5.57;100.00;98759.59;4967721;28;20081;-72
2020/12/12 03:51:33;;;;;;;26.38;13.57;;;;;;;5.50;100.00;98766.31;4966101;28;20413;-71
2020/12/12 03:53:59;;;;;;;22.58;12.88;;;;;;;5.56;100.00;98768.53;4966051;28;20436;-71
2020/12/12 03:56:24;;;;;;;22.40;12.45;;;;;;;5.52;100.00;98762.59;4969563;28;20470;-71
2020/12/12 03:58:50;;;;;;;25.85;14.30;;;;;;;5.59;100.00;98766.50;4966044;28;20051;-72
2020/12/12 04:01:15;;;;;;;26.77;14.65;;;;;;;5.55;100.00;98773.03;4968761;28;20038;-70
2020/12/12 04:03:40;;;;;;;23.25;13.02;;;;;;;5.52;100.00;98773.25;4968072;28;20057;-71
2020/12/12 04:06:06;;;;;;;22.95;13.85;;;;;;;5.46;100.00;98779.03;4970343;28;20126;-72
2020/12/12 04:08:31;;;;;;;25.70;13.73;;;;;;;5.52;100.00;98783.88;4967645;28;20035;-71
2020/12/12 04:10:59;;;;;;;25.67;14.95;;;;;;;5.53;100.00;98784.75;4965227;28;20042;-71
2020/12/12 04:13:24;;;;;;;31.55;16.25;;;;;;;5.53;100.00;98788.25;4967677;28;20053;-71
2020/12/12 04:15:50;;;;;;;32.67;16.27;;;;;;;5.47;100.00;98791.38;4982275;28;20042;-71
2020/12/12 04:18:15;;;;;;;28.50;16.13;;;;;;;5.45;100.00;98792.44;4969127;28;20101;-71
2020/12/12 04:20:41;;;;;;;32.42;17.55;;;;;;;5.53;100.00;98790.91;4967229;28;20038;-72
2020/12/12 04:23:06;;;;;;;31.52;16.77;;;;;;;5.49;100.00;98800.06;4967136;28;20051;-72
2020/12/12 04:25:31;;;;;;;30.88;17.83;;;;;;;5.50;100.00;98801.75;4965977;28;20347;-71
2020/12/12 04:27:57;;;;;;;33.33;17.08;;;;;;;5.40;100.00;98806.09;4966091;28;20142;-71
2020/12/12 04:30:22;;;;;;;34.47;17.92;;;;;;;5.47;100.00;98804.66;4966850;28;20034;-71
2020/12/12 04:32:48;;;;;;;33.65;18.60;;;;;;;5.45;100.00;98803.91;4968144;28;20043;-71
2020/12/12 04:35:13;;;;;;;35.78;18.58;;;;;;;5.38;100.00;98807.13;4966307;28;20126;-72
2020/12/12 04:37:38;;;;;;;37.90;20.00;;;;;;;5.41;100.00;98806.94;4971949;28;20043;-71
2020/12/12 04:40:04;;;;;;;40.53;21.35;;;;;;;5.46;100.00;98808.28;4966418;28;20505;-71
2020/12/12 04:42:33;;;;;;;54.28;27.38;;;;;;;5.44;100.00;98812.00;4971850;28;20049;-72
2020/12/12 04:44:59;;;;;;;61.15;34.03;;;;;;;5.51;100.00;98808.78;4967652;28;20042;-71
2020/12/12 04:47:26;;;;;;;84.93;44.72;;;;;;;5.54;100.00;98808.59;4967891;28;20090;-72
2020/12/12 04:49:52;;;;;;;91.53;49.25;;;;;;;5.44;100.00;98807.53;4969346;28;20404;-72
2020/12/12 04:52:18;;;;;;;127.13;64.47;;;;;;;5.48;100.00;98806.38;4973686;28;20035;-72
2020/12/12 04:54:46;;;;;;;153.25;74.55;;;;;;;5.48;100.00;98814.34;4969796;28;20177;-72
2020/12/12 04:57:11;;;;;;;119.45;60.65;;;;;;;5.46;100.00;98810.09;4970085;28;20417;-72
2020/12/12 04:59:41;;;;;;;122.30;59.95;;;;;;;5.41;100.00;98818.44;4970201;28;20054;-72
2020/12/12 05:02:06;;;;;;;105.53;52.80;;;;;;;5.35;100.00;98818.88;4970340;28;20117;-72
2020/12/12 05:04:32;;;;;;;72.47;35.00;;;;;;;5.36;100.00;98820.56;4968929;28;20170;-72
2020/12/12 05:06:57;;;;;;;64.70;31.88;;;;;;;5.45;100.00;98824.34;4970769;28;20043;-72
2020/12/12 05:09:23;;;;;;;49.65;24.05;;;;;;;5.47;100.00;98827.75;4970665;28;20043;-72
2020/12/12 05:11:48;;;;;;;41.60;21.23;;;;;;;5.46;100.00;98818.94;4970031;28;20043;-72
2020/12/12 05:14:15;;;;;;;38.83;18.67;;;;;;;5.45;100.00;98825.22;4971090;28;20039;-72
2020/12/12 05:16:44;;;;;;;40.47;21.58;;;;;;;5.40;100.00;98827.38;4970128;28;20327;-72
2020/12/12 05:19:09;;;;;;;38.55;19.50;;;;;;;5.43;100.00;98827.13;4969717;28;20105;-72
2020/12/12 05:21:45;;;;;;;40.33;20.20;;;;;;;5.39;100.00;98832.78;4970563;28;20034;-72
2020/12/12 05:24:10;;;;;;;37.17;19.40;;;;;;;5.45;100.00;98841.16;4969014;28;20042;-72
2020/12/12 05:26:36;;;;;;;39.90;20.83;;;;;;;5.48;100.00;98834.78;4970384;28;20035;-73
2020/12/12 05:29:02;;;;;;;38.95;20.23;;;;;;;5.42;100.00;98838.75;4971633;28;20031;-73
2020/12/12 05:31:28;;;;;;;39.05;19.77;;;;;;;5.40;100.00;98838.00;4971680;28;20161;-73
2020/12/12 05:33:54;;;;;;;44.67;20.25;;;;;;;5.44;100.00;98834.16;4969522;28;20046;-72
2020/12/12 05:36:26;;;;;;;40.58;20.58;;;;;;;5.47;100.00;98841.91;4958145;28;20031;-72
2020/12/12 05:39:01;;;;;;;44.95;20.92;;;;;;;5.43;100.00;98837.75;4969837;28;20074;-72
2020/12/12 05:41:27;;;;;;;39.33;19.38;;;;;;;5.46;100.00;98837.56;4969421;28;20039;-73
2020/12/12 05:43:53;;;;;;;40.60;19.77;;;;;;;5.54;100.00;98839.66;4971828;28;20033;-72
2020/12/12 05:46:22;;;;;;;44.63;22.02;;;;;;;5.54;100.00;98842.31;4970816;28;20125;-72
2020/12/12 05:48:47;;;;;;;42.50;19.80;;;;;;;5.48;100.00;98851.59;4969900;28;20042;-72
2020/12/12 05:51:14;;;;;;;43.15;21.98;;;;;;;5.52;100.00;98853.06;4967705;28;20038;-72
2020/12/12 05:53:43;;;;;;;45.17;21.55;;;;;;;5.51;100.00;98848.69;4970530;28;20038;-72
2020/12/12 05:56:10;;;;;;;47.25;22.55;;;;;;;5.52;100.00;98858.38;4970068;28;20042;-72
2020/12/12 05:58:36;;;;;;;40.88;20.42;;;;;;;5.58;100.00;98857.94;4968424;28;20553;-72
2020/12/12 06:01:02;;;;;;;41.90;20.67;;;;;;;5.48;100.00;98862.25;4969048;28;20129;-72
2020/12/12 06:03:30;;;;;;;49.13;21.48;;;;;;;5.51;100.00;98867.31;4969236;28;20027;-72
2020/12/12 06:06:03;;;;;;;43.53;21.10;;;;;;;5.46;100.00;98864.16;4969203;28;20118;-72
2020/12/12 06:08:37;;;;;;;48.50;21.70;;;;;;;5.48;100.00;98866.72;4969488;28;20042;-72
2020/12/12 06:11:08;;;;;;;48.80;20.92;;;;;;;5.41;100.00;98866.31;4969876;28;20443;-72
2020/12/12 06:13:36;;;;;;;50.25;23.38;;;;;;;5.41;100.00;98871.63;4971761;28;20101;-72
2020/12/12 06:16:07;;;;;;;44.13;21.95;;;;;;;5.47;100.00;98876.50;4970483;28;20424;-72
2020/12/12 06:18:38;;;;;;;49.95;21.60;;;;;;;5.51;100.00;98883.28;4969824;28;20066;-73
2020/12/12 06:21:08;;;;;;;50.05;22.35;;;;;;;5.53;100.00;98878.72;4966716;28;20493;-72
2020/12/12 06:23:39;;;;;;;47.38;22.88;;;;;;;5.61;100.00;98888.81;4963858;28;20550;-72
2020/12/12 06:26:06;;;;;;;41.95;20.63;;;;;;;5.57;100.00;98890.81;4966181;28;20031;-72
2020/12/12 06:28:39;;;;;;;48.80;21.77;;;;;;;5.56;100.00;98893.59;4967649;28;20129;-72
2020/12/12 06:31:06;;;;;;;45.80;21.48;;;;;;;5.53;100.00;98897.34;4972790;28;20053;-72
2020/12/12 06:33:50;;;;;;;44.22;21.02;;;;;;;5.59;100.00;98894.25;4968331;28;20043;-72
2020/12/12 06:36:25;;;;;;;47.10;21.95;;;;;;;5.59;100.00;98902.22;4967760;28;20038;-73
2020/12/12 06:39:18;;;;;;;53.90;22.52;;;;;;;5.56;100.00;98907.75;4968828;28;20077;-72
2020/12/12 06:41:44;;;;;;;54.00;22.38;;;;;;;5.60;100.00;98903.94;4951868;28;20038;-72
2020/12/12 06:44:10;;;;;;;47.97;23.02;;;;;;;5.63;100.00;98905.50;4971646;28;20485;-72
2020/12/12 06:46:54;;;;;;;50.40;23.23;;;;;;;5.65;100.00;98922.22;4969019;28;20037;-72
2020/12/12 06:49:21;;;;;;;48.25;21.75;;;;;;;5.65;100.00;98912.41;4966585;28;20395;-73
2020/12/12 06:51:51;;;;;;;52.38;23.70;;;;;;;5.65;100.00;98917.75;4968165;28;20073;-72
2020/12/12 06:54:18;;;;;;;52.45;23.38;;;;;;;5.69;100.00;98921.88;4969802;28;20042;-72
2020/12/12 06:56:43;;;;;;;50.90;23.30;;;;;;;5.67;100.00;98926.47;4967732;28;20608;-72
2020/12/12 06:59:37;;;;;;;54.83;24.17;;;;;;;5.64;100.00;98929.34;4967735;28;20125;-72
2020/12/12 07:02:03;;;;;;;;;;;;;;;5.62;100.00;98930.41;4969108;28;20416;-72
2020/12/12 07:04:34;;;;;;;50.20;21.77;;;;;;;5.64;100.00;98942.66;4975776;28;20020;-72
2020/12/12 07:07:05;;;;;;;51.13;22.85;;;;;;;5.56;100.00;98947.66;4968711;28;20368;-72
2020/12/12 07:09:32;;;;;;;51.35;22.65;;;;;;;5.55;100.00;98948.66;4962260;28;20046;-71
2020/12/12 07:11:57;;;;;;;57.55;24.73;;;;;;;5.72;100.00;98944.75;4967612;28;20497;-72
2020/12/12 07:14:24;;;;;;;51.92;23.77;;;;;;;5.65;100.00;98947.00;4967832;28;20042;-72
2020/12/12 07:17:00;;;;;;;51.25;24.23;;;;;;;5.67;100.00;98953.09;4967877;28;20046;-72
2020/12/12 07:19:37;;;;;;;50.55;21.55;;;;;;;5.63;100.00;98956.91;4968454;28;20043;-72
2020/12/12 07:22:08;;;;;;;51.80;23.27;;;;;;;5.72;100.00;98970.53;4968180;28;20126;-72
2020/12/12 07:24:34;;;;;;;54.30;24.33;;;;;;;5.62;100.00;98973.84;4967388;28;20042;-72
2020/12/12 07:27:01;;;;;;;53.65;23.85;;;;;;;5.53;100.00;98971.84;4967528;28;20049;-72
2020/12/12 07:29:27;;;;;;;52.75;22.90;;;;;;;5.69;100.00;98972.44;4967675;28;20378;-72
2020/12/12 07:31:54;;;;;;;50.53;22.58;;;;;;;5.72;100.00;98975.84;4972461;28;20138;-72
2020/12/12 07:34:22;;;;;;;50.25;23.52;;;;;;;5.72;100.00;98975.84;4966103;28;20125;-72
2020/12/12 07:37:05;;;;;;;47.60;21.92;;;;;;;5.72;100.00;98975.84;4969336;28;20027;-72
2020/12/12 07:39:39;;;;;;;51.85;23.35;;;;;;;5.68;100.00;98975.19;4968667;28;20040;-72
2020/12/12 07:42:08;;;;;;;53.50;24.67;;;;;;;5.77;100.00;98987.00;4968035;28;20039;-72
2020/12/12 07:44:36;;;;;;;50.45;23.08;;;;;;;5.70;100.00;98990.13;4968037;28;20035;-72
2020/12/12 07:47:04;;;;;;;54.50;25.10;;;;;;;5.75;100.00;98997.75;4966660;28;20507;-72
2020/12/12 07:49:31;;;;;;;56.47;24.08;;;;;;;5.66;100.00;98996.63;4967193;28;20074;-72
2020/12/12 07:52:02;;;;;;;50.25;22.95;;;;;;;5.78;100.00;99002.03;4967663;28;20042;-72
2020/12/12 07:54:32;;;;;;;49.95;22.42;;;;;;;5.82;100.00;99009.69;4966847;28;20034;-72
2020/12/12 07:56:58;;;;;;;51.42;23.33;;;;;;;5.78;100.00;99007.34;4967955;28;20473;-72
2020/12/12 07:59:23;;;;;;;51.67;22.83;;;;;;;5.78;100.00;99015.34;4968405;28;20027;-72
2020/12/12 08:01:49;;;;;;;52.08;23.90;;;;;;;5.83;100.00;99015.84;4962772;28;20306;-72
2020/12/12 08:04:24;;;;;;;52.33;23.27;;;;;;;5.81;100.00;99023.09;4966656;28;20026;-72
2020/12/12 08:06:50;;;;;;;48.40;23.02;;;;;;;5.85;100.00;99025.44;4966801;28;20053;-72
2020/12/12 08:09:25;;;;;;;57.00;24.60;;;;;;;5.85;100.00;99030.78;4966300;28;20421;-72
2020/12/12 08:12:01;;;;;;;51.33;23.48;;;;;;;5.88;100.00;99029.72;4965267;28;20374;-72
2020/12/12 08:14:29;;;;;;;50.08;21.25;;;;;;;5.84;100.00;99038.84;4961240;28;20081;-72
2020/12/12 08:17:04;;;;;;;55.65;23.85;;;;;;;5.84;100.00;99041.53;4964978;28;20074;-72
2020/12/12 08:19:29;;;;;;;53.53;22.92;;;;;;;5.87;100.00;99046.59;4967476;28;20504;-72
2020/12/12 08:22:15;;;;;;;50.92;24.40;;;;;;;5.95;100.00;99046.94;4966806;28;20039;-72
2020/12/12 08:24:42;;;;;;;53.70;23.13;;;;;;;5.88;100.00;99059.00;4966397;28;20031;-72
2020/12/12 08:27:13;;;;;;;49.80;22.63;;;;;;;5.95;100.00;99063.78;4965402;28;20563;-71
2020/12/12 08:29:41;;;;;;;52.88;23.55;;;;;;;5.98;100.00;99065.38;4966838;28;20035;-71
2020/12/12 08:32:06;;;;;;;53.13;24.65;;;;;;;5.86;100.00;99063.56;4967065;28;20524;-72
2020/12/12 08:34:32;;;;;;;58.72;24.85;;;;;;;5.89;100.00;99074.88;4967193;28;20134;-72
2020/12/12 08:36:58;;;;;;;56.88;25.27;;;;;;;5.83;100.00;99075.28;4966166;28;20035;-72
2020/12/12 08:39:25;;;;;;;62.70;26.73;;;;;;;5.79;100.00;99084.44;4966697;28;20027;-72
2020/12/12 08:41:51;;;;;;;66.18;29.55;;;;;;;5.99;100.00;99086.56;4966229;28;20043;-71
2020/12/12 08:44:23;;;;;;;59.33;25.52;;;;;;;5.92;100.00;99090.66;4964567;28;20051;-72
2020/12/12 08:46:53;;;;;;;67.72;31.42;;;;;;;5.90;100.00;99094.38;4966901;28;20105;-72
2020/12/12 08:49:19;;;;;;;64.75;28.67;;;;;;;5.87;100.00;99097.19;4966211;28;20050;-72
2020/12/12 08:51:51;;;;;;;60.63;26.05;;;;;;;5.85;100.00;99101.78;4963595;28;20031;-72
2020/12/12 08:54:16;;;;;;;55.08;24.75;;;;;;;5.89;100.00;99100.66;4962453;28;20035;-72
2020/12/12 08:56:41;;;;;;;55.63;25.15;;;;;;;6.02;100.00;99106.81;4967817;28;20027;-72
2020/12/12 08:59:18;;;;;;;57.97;26.10;;;;;;;5.98;100.00;99100.84;4967295;28;20343;-70
2020/12/12 09:01:43;;;;;;;55.70;27.05;;;;;;;6.01;100.00;99116.59;4967869;28;20078;-69
2020/12/12 09:04:09;;;;;;;53.53;24.33;;;;;;;6.10;100.00;99115.09;4967698;28;20527;-69
2020/12/12 09:06:40;;;;;;;51.60;22.58;;;;;;;6.10;100.00;99123.09;4965746;28;20050;-69
2020/12/12 09:09:26;;;;;;;65.97;27.83;;;;;;;6.17;100.00;99116.38;4965145;28;20137;-72
2020/12/12 09:12:00;;;;;;;51.15;23.35;;;;;;;6.06;100.00;99122.44;4970568;28;20115;-72
2020/12/12 09:14:32;;;;;;;52.28;24.55;;;;;;;6.06;100.00;99127.78;4967554;28;20036;-72
2020/12/12 09:17:02;;;;;;;59.85;28.77;;;;;;;6.10;100.00;99133.75;4966450;28;20446;-72
2020/12/12 09:19:29;;;;;;;58.63;29.33;;;;;;;6.09;100.00;99140.03;4967573;28;20093;-71
2020/12/12 09:21:54;;;;;;;67.50;35.20;;;;;;;6.14;100.00;99137.88;4967456;28;20041;-72
2020/12/12 09:24:22;;;;;;;57.80;25.30;;;;;;;6.14;100.00;99145.88;4964877;28;20384;-72
2020/12/12 09:26:49;;;;;;;49.30;23.20;;;;;;;6.19;100.00;99142.88;4968035;28;20117;-70
2020/12/12 09:29:15;;;;;;;59.58;24.80;;;;;;;6.24;100.00;99149.56;4966950;28;20408;-69
2020/12/12 09:31:40;;;;;;;57.38;28.00;;;;;;;6.25;100.00;99145.09;4973052;28;20043;-70
2020/12/12 09:34:06;;;;;;;59.03;26.55;;;;;;;6.21;100.00;99160.47;4967444;28;20142;-70
2020/12/12 09:36:31;;;;;;;52.35;24.73;;;;;;;6.21;100.00;99157.81;4968543;28;20039;-69
2020/12/12 09:38:57;;;;;;;58.40;26.20;;;;;;;6.26;100.00;99163.66;4969413;28;20504;-69
2020/12/12 09:41:22;;;;;;;58.28;26.25;;;;;;;6.32;100.00;99162.34;4985571;28;20045;-69
2020/12/12 09:43:48;;;;;;;51.88;23.65;;;;;;;6.30;100.00;99173.13;4970533;28;20030;-70
2020/12/12 09:46:15;;;;;;;53.15;23.50;;;;;;;6.39;100.00;99168.97;4970037;28;20030;-70
2020/12/12 09:48:41;;;;;;;53.33;26.63;;;;;;;6.34;100.00;99169.28;4970373;28;20105;-70
2020/12/12 09:51:08;;;;;;;83.68;33.08;;;;;;;6.41;100.00;99172.38;4968884;28;20186;-69
2020/12/12 09:53:33;;;;;;;89.97;41.60;;;;;;;6.43;100.00;99175.75;4969713;28;20142;-70
2020/12/12 09:55:59;;;;;;;77.80;32.72;;;;;;;6.34;100.00;99174.63;4978978;28;20174;-70
2020/12/12 09:58:25;;;;;;;77.25;36.33;;;;;;;6.40;100.00;99184.00;4970291;28;20034;-70
2020/12/12 10:00:51;;;;;;;72.95;33.38;;;;;;;6.42;100.00;99182.03;4984203;28;20042;-69
2020/12/12 10:03:17;;;;;;;65.47;33.08;;;;;;;6.43;100.00;99197.06;4970160;28;20035;-70
2020/12/12 10:05:42;;;;;;;57.60;29.58;;;;;;;6.54;100.00;99191.00;4970277;28;20066;-70
2020/12/12 10:08:12;;;;;;;59.33;28.23;;;;;;;6.51;100.00;99189.41;4969567;28;20026;-70
2020/12/12 10:10:38;;;;;;;59.00;27.15;;;;;;;6.58;100.00;99192.47;4968347;28;20034;-70
2020/12/12 10:13:03;;;;;;;61.38;26.70;;;;;;;6.63;100.00;99195.66;4967644;28;20030;-69
2020/12/12 10:15:29;;;;;;;49.25;24.25;;;;;;;6.66;100.00;99187.44;4970989;28;20074;-70
2020/12/12 10:17:55;;;;;;;59.78;25.50;;;;;;;6.65;100.00;99196.41;4970028;28;20138;-70
2020/12/12 10:20:21;;;;;;;54.63;24.48;;;;;;;6.57;100.00;99188.09;4970195;28;20027;-70
2020/12/12 10:22:47;;;;;;;49.65;23.13;;;;;;;6.73;100.00;99197.53;4969443;28;20031;-70
2020/12/12 10:25:13;;;;;;;47.28;23.48;;;;;;;6.68;100.00;99196.16;4969425;28;20397;-70
2020/12/12 10:27:40;;;;;;;44.95;22.02;;;;;;;6.80;100.00;99204.13;4969286;28;20046;-69
2020/12/12 10:30:09;;;;;;;49.35;23.30;;;;;;;6.82;100.00;99204.88;4985013;28;20085;-70
2020/12/12 10:32:35;;;;;;;45.75;22.65;;;;;;;6.79;100.00;99202.41;4973374;28;20121;-70
2020/12/12 10:35:00;;;;;;;49.85;24.33;;;;;;;6.78;100.00;99210.56;4971636;28;20077;-70
2020/12/12 10:37:26;;;;;;;45.08;21.10;;;;;;;6.81;100.00;99215.66;4970154;28;20454;-69
2020/12/12 10:40:03;;;;;;;50.75;21.95;;;;;;;6.76;100.00;99216.00;4969511;28;20105;-70
2020/12/12 10:42:29;;;;;;;51.05;23.27;;;;;;;6.76;100.00;99220.47;4967061;28;20478;-70
2020/12/12 10:44:54;;;;;;;48.40;23.73;;;;;;;6.84;100.00;99224.28;4958517;28;20129;-70
2020/12/12 10:47:20;;;;;;;46.38;22.88;;;;;;;6.85;100.00;99230.47;4969978;28;20034;-71
2020/12/12 10:49:45;;;;;;;49.42;24.55;;;;;;;6.76;100.00;99231.13;4968622;28;20039;-70
2020/12/12 10:52:11;;;;;;;51.95;23.63;;;;;;;6.84;100.00;99229.63;4968390;28;20041;-69
2020/12/12 10:54:38;;;;;;;48.53;24.10;;;;;;;6.94;100.00;99234.28;4968792;28;20037;-70
2020/12/12 10:57:03;;;;;;;48.90;22.33;;;;;;;6.93;100.00;99228.09;4966155;28;20489;-69
2020/12/12 10:59:28;;;;;;;55.35;22.77;;;;;;;6.93;100.00;99227.22;4972414;28;20057;-70
2020/12/12 11:01:55;;;;;;;46.40;21.90;;;;;;;7.02;100.00;99232.75;4970630;28;20336;-70
2020/12/12 11:04:23;;;;;;;42.60;21.30;;;;;;;7.03;100.00;99231.81;4968416;28;20042;-69
2020/12/12 11:06:51;;;;;;;48.25;23.20;;;;;;;7.01;100.00;99247.06;4967592;28;20041;-70
2020/12/12 11:09:17;;;;;;;50.65;22.63;;;;;;;7.14;100.00;99239.88;4959270;28;20038;-72
2020/12/12 11:11:42;;;;;;;44.17;21.92;;;;;;;7.15;100.00;99236.25;4969991;28;20031;-72
2020/12/12 11:14:09;;;;;;;46.80;22.27;;;;;;;7.13;100.00;99240.81;4970492;28;20038;-71
2020/12/12 11:16:35;;;;;;;46.78;21.95;;;;;;;7.14;100.00;99245.19;4951246;28;20073;-72
2020/12/12 11:19:01;;;;;;;44.33;21.50;;;;;;;7.21;100.00;99237.59;4968188;28;20034;-72